Fuji Maru — JD2030 — position and weather

sailwx.info

Track history (hours):
 
Tides and Currents Weather Stations Pressure Air Temp Water Temp Dewpoint Dewpoint Depression Visibility Wind Speed Wind Dir Waves Ship Positions

Fuji Maru

Last reported at 2016-Jul-29 11:32 UTC. Time now 2016-Jul-29 12:10 UTC.
Position N 35°39' E 139°46'.

Length 38 m; draft 4.4 m.

Type: Tug. MMSI: 431001102.

Date/timePositionNaut miles runAvg speedWind from/ knotsBaromVisibWave heightAir tempDewpointWater temp
2016-Jul-29 11:32N 35°39' E 139°46'0 0.0
2016-Jul-29 10:32N 35°39' E 139°46'0 0.0
2016-Jul-29 09:32N 35°39' E 139°46'0 0.0
2016-Jul-29 08:32N 35°39' E 139°46'0 0.0
2016-Jul-29 07:32N 35°39' E 139°46'0 0.0
2016-Jul-29 06:29N 35°39' E 139°46'3 3.1
2016-Jul-29 05:33N 35°36' E 139°47'3 2.8
2016-Jul-29 04:32N 35°39' E 139°46'0 0.0
2016-Jul-29 03:32N 35°39' E 139°46'0 0.0
2016-Jul-29 02:32N 35°39' E 139°46'0 0.0
2016-Jul-29 01:32N 35°39' E 139°46'0 0.0
2016-Jul-29 00:32N 35°39' E 139°46'0 0.0
2016-Jul-28 23:29N 35°39' E 139°46'0 0.0
2016-Jul-28 22:29N 35°39' E 139°46'0 0.1
2016-Jul-28 21:32N 35°39' E 139°46'0 0.0
2016-Jul-28 20:29N 35°39' E 139°46'0 0.0
2016-Jul-28 19:32N 35°39' E 139°46'0 0.0
2016-Jul-28 18:32N 35°39' E 139°46'0 0.0
2016-Jul-28 17:32N 35°39' E 139°46'0 0.0
2016-Jul-28 16:32N 35°39' E 139°46'0 0.0
2016-Jul-28 15:32N 35°39' E 139°46'0 0.0
2016-Jul-28 14:29N 35°39' E 139°46'0 0.0
2016-Jul-28 13:32N 35°39' E 139°46'0 0.0
2016-Jul-28 12:32N 35°39' E 139°46'0 0.0
2016-Jul-28 11:32N 35°39' E 139°46'0 0.0
2016-Jul-28 10:32N 35°39' E 139°46'0 0.0
2016-Jul-28 09:32N 35°39' E 139°46'3 3.1
2016-Jul-28 08:33N 35°36' E 139°47'0 0.1
2016-Jul-28 07:33N 35°36' E 139°47'1 0.7
2016-Jul-28 06:33N 35°37' E 139°47'2 2.0
2016-Jul-28 05:23N 35°39' E 139°46'0 0.0
2016-Jul-28 04:26N 35°39' E 139°46'0 0.0
2016-Jul-28 03:32N 35°39' E 139°46'0 0.0
2016-Jul-28 02:32N 35°39' E 139°46'0 0.1
2016-Jul-28 01:29N 35°39' E 139°46'0 0.1
2016-Jul-28 00:32N 35°39' E 139°46'0 0.0
2016-Jul-27 23:32N 35°39' E 139°46'3 2.9
2016-Jul-27 22:30N 35°36' E 139°46'4 3.9
2016-Jul-27 21:33N 35°34' E 139°50'3 3.3
2016-Jul-27 20:34N 35°36' E 139°47'3 3.3
2016-Jul-27 19:33N 35°39' E 139°46'0 0.0
2016-Jul-27 18:30N 35°39' E 139°46'0 0.0
2016-Jul-27 17:30N 35°39' E 139°46'0 0.0
2016-Jul-27 16:30N 35°39' E 139°46'0 0.0
2016-Jul-27 15:30N 35°39' E 139°46'0 0.0
2016-Jul-27 14:33N 35°39' E 139°46'0 0.0
2016-Jul-27 13:33N 35°39' E 139°46'0 0.0
2016-Jul-27 12:33N 35°39' E 139°46'0 0.0
2016-Jul-27 11:30N 35°39' E 139°46'0 0.0
2016-Jul-27 10:33N 35°39' E 139°46'0 0.0
2016-Jul-27 09:30N 35°39' E 139°46'0 0.0
2016-Jul-27 08:33N 35°39' E 139°46'0 0.0
2016-Jul-27 07:33N 35°39' E 139°46'0 0.0
2016-Jul-27 06:33N 35°39' E 139°46'0 0.0
2016-Jul-27 05:33N 35°39' E 139°46'0 0.0
2016-Jul-27 04:33N 35°39' E 139°46'0 0.0
2016-Jul-27 03:24N 35°39' E 139°46'0 0.0
2016-Jul-27 02:30N 35°39' E 139°46'0 0.1
2016-Jul-27 01:30N 35°39' E 139°46'0 0.1
2016-Jul-27 00:30N 35°39' E 139°46'0 0.0
2016-Jul-26 23:33N 35°39' E 139°46'2 2.1
2016-Jul-26 22:31N 35°37' E 139°46'2 2.6
2016-Jul-26 21:34N 35°35' E 139°48'4 4.2
2016-Jul-26 20:32N 35°39' E 139°46'0 0.0
2016-Jul-26 19:32N 35°39' E 139°46'0 0.0
2016-Jul-26 18:32N 35°39' E 139°46'0 0.0
2016-Jul-26 17:29N 35°39' E 139°46'0 0.0
2016-Jul-26 16:32N 35°39' E 139°46'0 0.0
2016-Jul-26 15:29N 35°39' E 139°46'0 0.0
2016-Jul-26 14:32N 35°39' E 139°46'0 0.0
2016-Jul-26 13:32N 35°39' E 139°46'0 0.0
2016-Jul-26 12:32N 35°39' E 139°46'0 0.0
2016-Jul-26 11:32N 35°39' E 139°46'0 0.0
2016-Jul-26 10:33N 35°39' E 139°46'4 3.8
2016-Jul-26 09:33N 35°35' E 139°47'2 1.7
2016-Jul-26 08:33N 35°37' E 139°46'2 2.2
2016-Jul-26 07:32N 35°39' E 139°46'0 0.0
2016-Jul-26 06:32N 35°39' E 139°46'0 0.0
2016-Jul-26 05:29N 35°39' E 139°46'0 0.0
2016-Jul-26 04:29N 35°39' E 139°46'0 0.0
2016-Jul-26 03:26N 35°39' E 139°46'0 0.0
2016-Jul-26 02:29N 35°39' E 139°46'2 2.4
2016-Jul-26 01:32N 35°37' E 139°47'2 1.8
2016-Jul-26 00:33N 35°35' E 139°48'4 4.0
2016-Jul-25 23:33N 35°39' E 139°46'0 0.0
2016-Jul-25 22:30N 35°39' E 139°46'0 0.0
2016-Jul-25 21:33N 35°39' E 139°46'0 0.0
2016-Jul-25 20:33N 35°39' E 139°46'0 0.0
2016-Jul-25 19:33N 35°39' E 139°46'0 0.0
2016-Jul-25 18:33N 35°39' E 139°46'0 0.0
2016-Jul-25 17:33N 35°39' E 139°46'0 0.0
2016-Jul-25 16:33N 35°39' E 139°46'0 0.0
2016-Jul-25 15:33N 35°39' E 139°46'0 0.0
2016-Jul-25 14:33N 35°39' E 139°46'0 0.0
2016-Jul-25 13:33N 35°39' E 139°46'0 0.0
2016-Jul-25 12:33N 35°39' E 139°46'0 0.0
2016-Jul-25 11:33N 35°39' E 139°46'0 0.0
2016-Jul-25 10:33N 35°39' E 139°46'0 0.0
2016-Jul-25 09:33N 35°39' E 139°46'2 1.6
2016-Jul-25 08:33N 35°37' E 139°46'0 0.5
2016-Jul-25 07:34N 35°37' E 139°46'2 2.0
2016-Jul-25 06:32N 35°39' E 139°46'0 0.0
2016-Jul-25 05:29N 35°39' E 139°46'0 0.0
2016-Jul-25 04:29N 35°39' E 139°46'0 0.0
2016-Jul-25 03:26N 35°39' E 139°46'0 0.0
2016-Jul-25 02:32N 35°39' E 139°46'0 0.0
2016-Jul-25 01:32N 35°39' E 139°46'0 0.0
2016-Jul-25 00:29N 35°39' E 139°46'3 2.6
2016-Jul-24 23:31N 35°36' E 139°47'3 3.5
2016-Jul-24 22:31N 35°34' E 139°49'4 3.9
2016-Jul-24 21:32N 35°37' E 139°47'3 2.7
2016-Jul-24 20:33N 35°36' E 139°50'2 2.5
2016-Jul-24 19:33N 35°36' E 139°47'3 3.2
2016-Jul-24 18:33N 35°39' E 139°46'0 0.0
2016-Jul-24 17:33N 35°39' E 139°46'0 0.0
2016-Jul-24 16:30N 35°39' E 139°46'0 0.0
2016-Jul-24 15:33N 35°39' E 139°46'0 0.0
2016-Jul-24 14:33N 35°39' E 139°46'0 0.0
2016-Jul-24 13:33N 35°39' E 139°46'0 0.0
2016-Jul-24 12:33N 35°39' E 139°46'0 0.0
2016-Jul-24 11:33N 35°39' E 139°46'0 0.0
2016-Jul-24 10:33N 35°39' E 139°46'0 0.0
2016-Jul-24 09:33N 35°39' E 139°46'0 0.0
2016-Jul-24 08:33N 35°39' E 139°46'0 0.0
2016-Jul-24 07:33N 35°39' E 139°46'0 0.0
2016-Jul-24 06:30N 35°39' E 139°46'0 0.0
2016-Jul-24 05:33N 35°39' E 139°46'0 0.0
2016-Jul-24 04:33N 35°39' E 139°46'0 0.0
2016-Jul-24 03:33N 35°39' E 139°46'0 0.0
2016-Jul-24 02:33N 35°39' E 139°46'0 0.0
2016-Jul-24 01:30N 35°39' E 139°46'0 0.0
2016-Jul-24 00:30N 35°39' E 139°46'0 0.0
2016-Jul-23 23:33N 35°39' E 139°46'0 0.0
2016-Jul-23 22:30N 35°39' E 139°46'0 0.0
2016-Jul-23 21:33N 35°39' E 139°46'0 0.0
2016-Jul-23 20:27N 35°39' E 139°46'0 0.0
2016-Jul-23 19:33N 35°39' E 139°46'0 0.0
2016-Jul-23 18:33N 35°39' E 139°46'0 0.0
2016-Jul-23 17:33N 35°39' E 139°46'0 0.0
2016-Jul-23 16:33N 35°39' E 139°46'0 0.0
2016-Jul-23 15:33N 35°39' E 139°46'0 0.0
2016-Jul-23 14:33N 35°39' E 139°46'0 0.0
2016-Jul-23 13:33N 35°39' E 139°46'0 0.0
2016-Jul-23 12:33N 35°39' E 139°46'0 0.0
2016-Jul-23 11:30N 35°39' E 139°46'0 0.0
2016-Jul-23 10:33N 35°39' E 139°46'0 0.0
2016-Jul-23 09:33N 35°39' E 139°46'0 0.0
2016-Jul-23 08:33N 35°39' E 139°46'0 0.0
2016-Jul-23 07:33N 35°39' E 139°46'0 0.0
2016-Jul-23 06:33N 35°39' E 139°46'0 0.0
2016-Jul-23 04:33N 35°39' E 139°46'0 0.0
2016-Jul-23 03:33N 35°39' E 139°46'0 0.0
2016-Jul-23 02:33N 35°39' E 139°46'0 0.0
2016-Jul-23 01:33N 35°39' E 139°46'0 0.0
2016-Jul-23 00:30N 35°39' E 139°46'0 0.0
2016-Jul-22 23:24N 35°39' E 139°46'3 3.3
2016-Jul-22 22:31N 35°36' E 139°46'2 2.4
2016-Jul-22 21:33N 35°34' E 139°48'3 2.7
2016-Jul-22 20:33N 35°37' E 139°46'2 2.2
2016-Jul-22 19:31N 35°39' E 139°46'0 0.0
2016-Jul-22 18:31N 35°39' E 139°46'0 0.0
2016-Jul-22 17:31N 35°39' E 139°46'0 0.0
2016-Jul-22 16:31N 35°39' E 139°46'0 0.0
2016-Jul-22 15:31N 35°39' E 139°46'0 0.0
2016-Jul-22 14:31N 35°39' E 139°46'0 0.0
2016-Jul-22 13:31N 35°39' E 139°46'0 0.0
2016-Jul-22 12:31N 35°39' E 139°46'0 0.0
2016-Jul-22 11:31N 35°39' E 139°46'0 0.0
2016-Jul-22 10:31N 35°39' E 139°46'0 0.0
2016-Jul-22 09:28N 35°39' E 139°46'0 0.0
2016-Jul-22 08:31N 35°39' E 139°46'0 0.0
2016-Jul-22 07:31N 35°39' E 139°46'0 0.0
2016-Jul-22 04:31N 35°39' E 139°46'0 0.0
2016-Jul-22 03:31N 35°39' E 139°46'3 2.9
2016-Jul-22 02:33N 35°36' E 139°47'3 3.0
2016-Jul-22 01:34N 35°34' E 139°49'6 5.6
2016-Jul-22 00:32N 35°39' E 139°46'0 0.0
2016-Jul-21 23:29N 35°39' E 139°46'0 0.0
2016-Jul-21 22:32N 35°39' E 139°46'0 0.0
2016-Jul-21 21:32N 35°39' E 139°46'0 0.0
2016-Jul-21 20:32N 35°39' E 139°46'0 0.0
2016-Jul-21 19:32N 35°39' E 139°46'0 0.0
2016-Jul-21 18:32N 35°39' E 139°46'0 0.0
2016-Jul-21 17:32N 35°39' E 139°46'0 0.0
2016-Jul-21 16:32N 35°39' E 139°46'0 0.0
2016-Jul-21 15:32N 35°39' E 139°46'0 0.0
2016-Jul-21 14:32N 35°39' E 139°46'0 0.1
2016-Jul-21 13:33N 35°39' E 139°46'2 1.9
2016-Jul-21 12:33N 35°37' E 139°46'2 1.2
2016-Jul-21 11:18N 35°35' E 139°47'0 0.0
2016-Jul-21 10:33N 35°35' E 139°47'0 0.0
2016-Jul-21 09:33N 35°35' E 139°47'1 0.5
2016-Jul-21 08:33N 35°36' E 139°47'2 2.0
2016-Jul-21 07:31N 35°34' E 139°48'2 2.0
2016-Jul-21 06:34N 35°36' E 139°47'3 3.1
2016-Jul-21 05:29N 35°39' E 139°46'0 0.0
2016-Jul-21 04:29N 35°39' E 139°46'0 0.0
2016-Jul-21 03:29N 35°39' E 139°46'0 0.0
2016-Jul-21 02:32N 35°39' E 139°46'0 0.0
2016-Jul-21 01:29N 35°39' E 139°46'0 0.0
2016-Jul-21 00:32N 35°39' E 139°46'0 0.0
2016-Jul-20 23:29N 35°39' E 139°46'0 0.0
2016-Jul-20 22:32N 35°39' E 139°46'0 0.0
2016-Jul-20 21:32N 35°39' E 139°46'0 0.0
2016-Jul-20 20:17N 35°39' E 139°46'0 0.0
2016-Jul-20 19:29N 35°39' E 139°46'0 0.0
2016-Jul-20 17:29N 35°39' E 139°46'0 0.0
2016-Jul-20 16:32N 35°39' E 139°46'0 0.0
2016-Jul-20 15:29N 35°39' E 139°46'0 0.0
2016-Jul-20 14:29N 35°39' E 139°46'0 0.0
2016-Jul-20 13:32N 35°39' E 139°46'0 0.0
2016-Jul-20 12:32N 35°39' E 139°46'2 1.7
2016-Jul-20 11:33N 35°37' E 139°46'4 3.7
2016-Jul-20 10:34N 35°34' E 139°49'2 2.1
2016-Jul-20 09:31N 35°35' E 139°47'1 1.3
2016-Jul-20 08:33N 35°37' E 139°46'2 2.1
2016-Jul-20 07:32N 35°39' E 139°46'0 0.0
2016-Jul-20 06:29N 35°39' E 139°46'0 0.0
2016-Jul-20 05:32N 35°39' E 139°46'0 0.0
2016-Jul-20 02:32N 35°39' E 139°46'0 0.0
2016-Jul-20 01:29N 35°39' E 139°46'0 0.0
2016-Jul-20 00:26N 35°39' E 139°46'0 0.0
2016-Jul-19 23:32N 35°39' E 139°46'0 0.0
2016-Jul-19 22:32N 35°39' E 139°46'0 0.0
2016-Jul-19 21:32N 35°39' E 139°46'0 0.0
2016-Jul-19 20:23N 35°39' E 139°46'0 0.0
2016-Jul-19 19:32N 35°39' E 139°46'0 0.0
2016-Jul-19 18:32N 35°39' E 139°46'0 0.0
2016-Jul-19 17:32N 35°39' E 139°46'0 0.0
2016-Jul-19 16:32N 35°39' E 139°46'0 0.0
2016-Jul-19 15:32N 35°39' E 139°46'0 0.0
2016-Jul-19 14:32N 35°39' E 139°46'0 0.0
2016-Jul-19 13:26N 35°39' E 139°46'0 0.0
2016-Jul-19 12:29N 35°39' E 139°46'  
Track history (hours):
 
Tides and Currents Weather Stations Pressure Air Temp Water Temp Dewpoint Dewpoint Depression Visibility Wind Speed Wind Dir Waves Ship Positions

Fuji Maru

Last reported at 2016-Jul-29 11:32 UTC. Time now 2016-Jul-29 12:10 UTC.
Position N 35°39' E 139°46'.

Length 38 m; draft 4.4 m.

Type: Tug. MMSI: 431001102.

Date/timePositionNaut miles runAvg speedWind from/ knotsBaromVisibWave heightAir tempDewpointWater temp
2016-Jul-29 11:32N 35°39' E 139°46'0 0.0
2016-Jul-29 10:32N 35°39' E 139°46'0 0.0
2016-Jul-29 09:32N 35°39' E 139°46'0 0.0
2016-Jul-29 08:32N 35°39' E 139°46'0 0.0
2016-Jul-29 07:32N 35°39' E 139°46'0 0.0
2016-Jul-29 06:29N 35°39' E 139°46'3 3.1
2016-Jul-29 05:33N 35°36' E 139°47'3 2.8
2016-Jul-29 04:32N 35°39' E 139°46'0 0.0
2016-Jul-29 03:32N 35°39' E 139°46'0 0.0
2016-Jul-29 02:32N 35°39' E 139°46'0 0.0
2016-Jul-29 01:32N 35°39' E 139°46'0 0.0
2016-Jul-29 00:32N 35°39' E 139°46'0 0.0
2016-Jul-28 23:29N 35°39' E 139°46'0 0.0
2016-Jul-28 22:29N 35°39' E 139°46'0 0.1
2016-Jul-28 21:32N 35°39' E 139°46'0 0.0
2016-Jul-28 20:29N 35°39' E 139°46'0 0.0
2016-Jul-28 19:32N 35°39' E 139°46'0 0.0
2016-Jul-28 18:32N 35°39' E 139°46'0 0.0
2016-Jul-28 17:32N 35°39' E 139°46'0 0.0
2016-Jul-28 16:32N 35°39' E 139°46'0 0.0
2016-Jul-28 15:32N 35°39' E 139°46'0 0.0
2016-Jul-28 14:29N 35°39' E 139°46'0 0.0
2016-Jul-28 13:32N 35°39' E 139°46'0 0.0
2016-Jul-28 12:32N 35°39' E 139°46'0 0.0
2016-Jul-28 11:32N 35°39' E 139°46'0 0.0
2016-Jul-28 10:32N 35°39' E 139°46'0 0.0
2016-Jul-28 09:32N 35°39' E 139°46'3 3.1
2016-Jul-28 08:33N 35°36' E 139°47'0 0.1
2016-Jul-28 07:33N 35°36' E 139°47'1 0.7
2016-Jul-28 06:33N 35°37' E 139°47'2 2.0
2016-Jul-28 05:23N 35°39' E 139°46'0 0.0
2016-Jul-28 04:26N 35°39' E 139°46'0 0.0
2016-Jul-28 03:32N 35°39' E 139°46'0 0.0
2016-Jul-28 02:32N 35°39' E 139°46'0 0.1
2016-Jul-28 01:29N 35°39' E 139°46'0 0.1
2016-Jul-28 00:32N 35°39' E 139°46'0 0.0
2016-Jul-27 23:32N 35°39' E 139°46'3 2.9
2016-Jul-27 22:30N 35°36' E 139°46'4 3.9
2016-Jul-27 21:33N 35°34' E 139°50'3 3.3
2016-Jul-27 20:34N 35°36' E 139°47'3 3.3
2016-Jul-27 19:33N 35°39' E 139°46'0 0.0
2016-Jul-27 18:30N 35°39' E 139°46'0 0.0
2016-Jul-27 17:30N 35°39' E 139°46'0 0.0
2016-Jul-27 16:30N 35°39' E 139°46'0 0.0
2016-Jul-27 15:30N 35°39' E 139°46'0 0.0
2016-Jul-27 14:33N 35°39' E 139°46'0 0.0
2016-Jul-27 13:33N 35°39' E 139°46'0 0.0
2016-Jul-27 12:33N 35°39' E 139°46'0 0.0
2016-Jul-27 11:30N 35°39' E 139°46'0 0.0
2016-Jul-27 10:33N 35°39' E 139°46'0 0.0
2016-Jul-27 09:30N 35°39' E 139°46'0 0.0
2016-Jul-27 08:33N 35°39' E 139°46'0 0.0
2016-Jul-27 07:33N 35°39' E 139°46'0 0.0
2016-Jul-27 06:33N 35°39' E 139°46'0 0.0
2016-Jul-27 05:33N 35°39' E 139°46'0 0.0
2016-Jul-27 04:33N 35°39' E 139°46'0 0.0
2016-Jul-27 03:24N 35°39' E 139°46'0 0.0
2016-Jul-27 02:30N 35°39' E 139°46'0 0.1
2016-Jul-27 01:30N 35°39' E 139°46'0 0.1
2016-Jul-27 00:30N 35°39' E 139°46'0 0.0
2016-Jul-26 23:33N 35°39' E 139°46'2 2.1
2016-Jul-26 22:31N 35°37' E 139°46'2 2.6
2016-Jul-26 21:34N 35°35' E 139°48'4 4.2
2016-Jul-26 20:32N 35°39' E 139°46'0 0.0
2016-Jul-26 19:32N 35°39' E 139°46'0 0.0
2016-Jul-26 18:32N 35°39' E 139°46'0 0.0
2016-Jul-26 17:29N 35°39' E 139°46'0 0.0
2016-Jul-26 16:32N 35°39' E 139°46'0 0.0
2016-Jul-26 15:29N 35°39' E 139°46'0 0.0
2016-Jul-26 14:32N 35°39' E 139°46'0 0.0
2016-Jul-26 13:32N 35°39' E 139°46'0 0.0
2016-Jul-26 12:32N 35°39' E 139°46'0 0.0
2016-Jul-26 11:32N 35°39' E 139°46'0 0.0
2016-Jul-26 10:33N 35°39' E 139°46'4 3.8
2016-Jul-26 09:33N 35°35' E 139°47'2 1.7
2016-Jul-26 08:33N 35°37' E 139°46'2 2.2
2016-Jul-26 07:32N 35°39' E 139°46'0 0.0
2016-Jul-26 06:32N 35°39' E 139°46'0 0.0
2016-Jul-26 05:29N 35°39' E 139°46'0 0.0
2016-Jul-26 04:29N 35°39' E 139°46'0 0.0
2016-Jul-26 03:26N 35°39' E 139°46'0 0.0
2016-Jul-26 02:29N 35°39' E 139°46'2 2.4
2016-Jul-26 01:32N 35°37' E 139°47'2 1.8
2016-Jul-26 00:33N 35°35' E 139°48'4 4.0
2016-Jul-25 23:33N 35°39' E 139°46'0 0.0
2016-Jul-25 22:30N 35°39' E 139°46'0 0.0
2016-Jul-25 21:33N 35°39' E 139°46'0 0.0
2016-Jul-25 20:33N 35°39' E 139°46'0 0.0
2016-Jul-25 19:33N 35°39' E 139°46'0 0.0
2016-Jul-25 18:33N 35°39' E 139°46'0 0.0
2016-Jul-25 17:33N 35°39' E 139°46'0 0.0
2016-Jul-25 16:33N 35°39' E 139°46'0 0.0
2016-Jul-25 15:33N 35°39' E 139°46'0 0.0
2016-Jul-25 14:33N 35°39' E 139°46'0 0.0
2016-Jul-25 13:33N 35°39' E 139°46'0 0.0
2016-Jul-25 12:33N 35°39' E 139°46'0 0.0
2016-Jul-25 11:33N 35°39' E 139°46'0 0.0
2016-Jul-25 10:33N 35°39' E 139°46'0 0.0
2016-Jul-25 09:33N 35°39' E 139°46'2 1.6
2016-Jul-25 08:33N 35°37' E 139°46'0 0.5
2016-Jul-25 07:34N 35°37' E 139°46'2 2.0
2016-Jul-25 06:32N 35°39' E 139°46'0 0.0
2016-Jul-25 05:29N 35°39' E 139°46'0 0.0
2016-Jul-25 04:29N 35°39' E 139°46'0 0.0
2016-Jul-25 03:26N 35°39' E 139°46'0 0.0
2016-Jul-25 02:32N 35°39' E 139°46'0 0.0
2016-Jul-25 01:32N 35°39' E 139°46'0 0.0
2016-Jul-25 00:29N 35°39' E 139°46'3 2.6
2016-Jul-24 23:31N 35°36' E 139°47'3 3.5
2016-Jul-24 22:31N 35°34' E 139°49'4 3.9
2016-Jul-24 21:32N 35°37' E 139°47'3 2.7
2016-Jul-24 20:33N 35°36' E 139°50'2 2.5
2016-Jul-24 19:33N 35°36' E 139°47'3 3.2
2016-Jul-24 18:33N 35°39' E 139°46'0 0.0
2016-Jul-24 17:33N 35°39' E 139°46'0 0.0
2016-Jul-24 16:30N 35°39' E 139°46'0 0.0
2016-Jul-24 15:33N 35°39' E 139°46'0 0.0
2016-Jul-24 14:33N 35°39' E 139°46'0 0.0
2016-Jul-24 13:33N 35°39' E 139°46'0 0.0
2016-Jul-24 12:33N 35°39' E 139°46'0 0.0
2016-Jul-24 11:33N 35°39' E 139°46'0 0.0
2016-Jul-24 10:33N 35°39' E 139°46'0 0.0
2016-Jul-24 09:33N 35°39' E 139°46'0 0.0
2016-Jul-24 08:33N 35°39' E 139°46'0 0.0
2016-Jul-24 07:33N 35°39' E 139°46'0 0.0
2016-Jul-24 06:30N 35°39' E 139°46'0 0.0
2016-Jul-24 05:33N 35°39' E 139°46'0 0.0
2016-Jul-24 04:33N 35°39' E 139°46'0 0.0
2016-Jul-24 03:33N 35°39' E 139°46'0 0.0
2016-Jul-24 02:33N 35°39' E 139°46'0 0.0
2016-Jul-24 01:30N 35°39' E 139°46'0 0.0
2016-Jul-24 00:30N 35°39' E 139°46'0 0.0
2016-Jul-23 23:33N 35°39' E 139°46'0 0.0
2016-Jul-23 22:30N 35°39' E 139°46'0 0.0
2016-Jul-23 21:33N 35°39' E 139°46'0 0.0
2016-Jul-23 20:27N 35°39' E 139°46'0 0.0
2016-Jul-23 19:33N 35°39' E 139°46'0 0.0
2016-Jul-23 18:33N 35°39' E 139°46'0 0.0
2016-Jul-23 17:33N 35°39' E 139°46'0 0.0
2016-Jul-23 16:33N 35°39' E 139°46'0 0.0
2016-Jul-23 15:33N 35°39' E 139°46'0 0.0
2016-Jul-23 14:33N 35°39' E 139°46'0 0.0
2016-Jul-23 13:33N 35°39' E 139°46'0 0.0
2016-Jul-23 12:33N 35°39' E 139°46'0 0.0
2016-Jul-23 11:30N 35°39' E 139°46'0 0.0
2016-Jul-23 10:33N 35°39' E 139°46'0 0.0
2016-Jul-23 09:33N 35°39' E 139°46'0 0.0
2016-Jul-23 08:33N 35°39' E 139°46'0 0.0
2016-Jul-23 07:33N 35°39' E 139°46'0 0.0
2016-Jul-23 06:33N 35°39' E 139°46'0 0.0
2016-Jul-23 04:33N 35°39' E 139°46'0 0.0
2016-Jul-23 03:33N 35°39' E 139°46'0 0.0
2016-Jul-23 02:33N 35°39' E 139°46'0 0.0
2016-Jul-23 01:33N 35°39' E 139°46'0 0.0
2016-Jul-23 00:30N 35°39' E 139°46'0 0.0
2016-Jul-22 23:24N 35°39' E 139°46'3 3.3
2016-Jul-22 22:31N 35°36' E 139°46'2 2.4
2016-Jul-22 21:33N 35°34' E 139°48'3 2.7
2016-Jul-22 20:33N 35°37' E 139°46'2 2.2
2016-Jul-22 19:31N 35°39' E 139°46'0 0.0
2016-Jul-22 18:31N 35°39' E 139°46'0 0.0
2016-Jul-22 17:31N 35°39' E 139°46'0 0.0
2016-Jul-22 16:31N 35°39' E 139°46'0 0.0
2016-Jul-22 15:31N 35°39' E 139°46'0 0.0
2016-Jul-22 14:31N 35°39' E 139°46'0 0.0
2016-Jul-22 13:31N 35°39' E 139°46'0 0.0
2016-Jul-22 12:31N 35°39' E 139°46'0 0.0
2016-Jul-22 11:31N 35°39' E 139°46'0 0.0
2016-Jul-22 10:31N 35°39' E 139°46'0 0.0
2016-Jul-22 09:28N 35°39' E 139°46'0 0.0
2016-Jul-22 08:31N 35°39' E 139°46'0 0.0
2016-Jul-22 07:31N 35°39' E 139°46'0 0.0
2016-Jul-22 04:31N 35°39' E 139°46'0 0.0
2016-Jul-22 03:31N 35°39' E 139°46'3 2.9
2016-Jul-22 02:33N 35°36' E 139°47'3 3.0
2016-Jul-22 01:34N 35°34' E 139°49'6 5.6
2016-Jul-22 00:32N 35°39' E 139°46'0 0.0
2016-Jul-21 23:29N 35°39' E 139°46'0 0.0
2016-Jul-21 22:32N 35°39' E 139°46'0 0.0
2016-Jul-21 21:32N 35°39' E 139°46'0 0.0
2016-Jul-21 20:32N 35°39' E 139°46'0 0.0
2016-Jul-21 19:32N 35°39' E 139°46'0 0.0
2016-Jul-21 18:32N 35°39' E 139°46'0 0.0
2016-Jul-21 17:32N 35°39' E 139°46'0 0.0
2016-Jul-21 16:32N 35°39' E 139°46'0 0.0
2016-Jul-21 15:32N 35°39' E 139°46'0 0.0
2016-Jul-21 14:32N 35°39' E 139°46'0 0.1
2016-Jul-21 13:33N 35°39' E 139°46'2 1.9
2016-Jul-21 12:33N 35°37' E 139°46'2 1.2
2016-Jul-21 11:18N 35°35' E 139°47'0 0.0
2016-Jul-21 10:33N 35°35' E 139°47'0 0.0
2016-Jul-21 09:33N 35°35' E 139°47'1 0.5
2016-Jul-21 08:33N 35°36' E 139°47'2 2.0
2016-Jul-21 07:31N 35°34' E 139°48'2 2.0
2016-Jul-21 06:34N 35°36' E 139°47'3 3.1
2016-Jul-21 05:29N 35°39' E 139°46'0 0.0
2016-Jul-21 04:29N 35°39' E 139°46'0 0.0
2016-Jul-21 03:29N 35°39' E 139°46'0 0.0
2016-Jul-21 02:32N 35°39' E 139°46'0 0.0
2016-Jul-21 01:29N 35°39' E 139°46'0 0.0
2016-Jul-21 00:32N 35°39' E 139°46'0 0.0
2016-Jul-20 23:29N 35°39' E 139°46'0 0.0
2016-Jul-20 22:32N 35°39' E 139°46'0 0.0
2016-Jul-20 21:32N 35°39' E 139°46'0 0.0
2016-Jul-20 20:17N 35°39' E 139°46'0 0.0
2016-Jul-20 19:29N 35°39' E 139°46'0 0.0
2016-Jul-20 17:29N 35°39' E 139°46'0 0.0
2016-Jul-20 16:32N 35°39' E 139°46'0 0.0
2016-Jul-20 15:29N 35°39' E 139°46'0 0.0
2016-Jul-20 14:29N 35°39' E 139°46'0 0.0
2016-Jul-20 13:32N 35°39' E 139°46'0 0.0
2016-Jul-20 12:32N 35°39' E 139°46'2 1.7
2016-Jul-20 11:33N 35°37' E 139°46'4 3.7
2016-Jul-20 10:34N 35°34' E 139°49'2 2.1
2016-Jul-20 09:31N 35°35' E 139°47'1 1.3
2016-Jul-20 08:33N 35°37' E 139°46'2 2.1
2016-Jul-20 07:32N 35°39' E 139°46'0 0.0
2016-Jul-20 06:29N 35°39' E 139°46'0 0.0
2016-Jul-20 05:32N 35°39' E 139°46'0 0.0
2016-Jul-20 02:32N 35°39' E 139°46'0 0.0
2016-Jul-20 01:29N 35°39' E 139°46'0 0.0
2016-Jul-20 00:26N 35°39' E 139°46'0 0.0
2016-Jul-19 23:32N 35°39' E 139°46'0 0.0
2016-Jul-19 22:32N 35°39' E 139°46'0 0.0
2016-Jul-19 21:32N 35°39' E 139°46'0 0.0
2016-Jul-19 20:23N 35°39' E 139°46'0 0.0
2016-Jul-19 19:32N 35°39' E 139°46'0 0.0
2016-Jul-19 18:32N 35°39' E 139°46'0 0.0
2016-Jul-19 17:32N 35°39' E 139°46'0 0.0
2016-Jul-19 16:32N 35°39' E 139°46'0 0.0
2016-Jul-19 15:32N 35°39' E 139°46'0 0.0
2016-Jul-19 14:32N 35°39' E 139°46'0 0.0
2016-Jul-19 13:26N 35°39' E 139°46'0 0.0
2016-Jul-19 12:29N 35°39' E 139°46'  

Dump ship's entire track history